Time;durP1;ratioP1;P1;durP2;ratioP2;P2;SDS_P1;SDS_P2;PMS_P1;PMS_P2;Temp;Humidity;BMP_temperature;BMP_pressure;BME280_temperature;BME280_humidity;BME280_pressure;Samples;Min_cycle;Max_cycle;Signal;HPM_P1;HPM_P2
2022/01/25 00:32:06;;;;;;;85.57;41.85;;;;;;;0.69;100.00;103445.94;5049733;28;20045;-81
2022/01/25 00:34:31;;;;;;;88.97;43.58;;;;;;;0.68;100.00;103439.88;5050272;28;20017;-81
2022/01/25 00:36:57;;;;;;;85.10;41.45;;;;;;;0.69;100.00;103451.97;5050594;28;20036;-81
2022/01/25 00:39:22;;;;;;;82.60;41.38;;;;;;;0.69;100.00;103448.50;5050290;28;20445;-81
2022/01/25 00:41:47;;;;;;;88.93;42.15;;;;;;;0.68;100.00;103447.59;5050594;28;20052;-81
2022/01/25 00:44:13;;;;;;;83.22;38.95;;;;;;;0.69;100.00;103448.50;5050138;28;20021;-81
2022/01/25 00:46:39;;;;;;;87.10;42.55;;;;;;;0.69;100.00;103446.81;5050163;28;20495;-81
2022/01/25 00:49:04;;;;;;;79.20;39.30;;;;;;;0.69;100.00;103451.06;5050243;28;20495;-81
2022/01/25 00:56:36;;;;;;;80.65;40.95;;;;;;;0.70;100.00;103443.44;5050850;28;20131;-81
2022/01/25 00:59:04;;;;;;;82.70;39.35;;;;;;;0.75;100.00;103441.13;5049663;28;20443;-81
2022/01/25 01:01:31;;;;;;;81.72;40.22;;;;;;;0.77;100.00;103436.09;5049949;28;20082;-81
2022/01/25 01:03:56;;;;;;;87.55;41.85;;;;;;;0.76;100.00;103431.78;5053765;28;20037;-81
2022/01/25 01:06:22;;;;;;;87.63;41.20;;;;;;;0.79;100.00;103431.97;5054773;28;20025;-81
2022/01/25 01:08:49;;;;;;;92.07;43.08;;;;;;;0.81;100.00;103438.94;5053667;28;20056;-81
2022/01/25 01:11:22;;;;;;;89.22;41.53;;;;;;;0.85;100.00;103437.41;5053928;28;20108;-81
2022/01/25 01:38:22;;;;;;;87.05;41.33;;;;;;;0.95;100.00;103452.59;5053865;28;20072;-81
2022/01/25 01:41:05;;;;;;;85.57;40.78;;;;;;;0.98;100.00;103450.19;5038432;28;20037;-81
2022/01/25 01:43:33;;;;;;;90.00;39.50;;;;;;;0.98;100.00;103441.59;5045817;28;20032;-81
2022/01/25 01:48:29;;;;;;;85.20;38.80;;;;;;;1.02;100.00;103447.00;5053733;28;20112;-81
2022/01/25 01:51:00;;;;;;;88.50;39.80;;;;;;;1.03;100.00;103443.63;5052659;28;20021;-81
2022/01/25 01:53:26;;;;;;;83.05;39.90;;;;;;;1.04;100.00;103450.53;5053127;28;20020;-81
2022/01/25 01:55:51;;;;;;;87.60;40.45;;;;;;;1.01;100.00;103442.66;5053407;28;20025;-81
2022/01/25 01:58:16;;;;;;;87.32;39.25;;;;;;;1.03;100.00;103443.63;5052872;28;20119;-81
2022/01/25 02:00:46;;;;;;;87.50;40.30;;;;;;;1.03;100.00;103453.91;5052809;28;20045;-81
2022/01/25 02:03:12;;;;;;;87.47;40.13;;;;;;;1.07;100.00;103458.41;5053424;28;20524;-81
2022/01/25 02:05:38;;;;;;;85.93;39.72;;;;;;;1.05;100.00;103449.75;5052299;28;20106;-81
2022/01/25 02:08:04;;;;;;;84.35;39.75;;;;;;;1.05;100.00;103449.75;5052470;28;20032;-81
2022/01/25 02:10:29;;;;;;;84.43;39.63;;;;;;;1.05;100.00;103452.31;5051714;28;20021;-81
2022/01/25 02:12:56;;;;;;;87.07;39.58;;;;;;;1.05;100.00;103447.19;5052861;28;20043;-81
2022/01/25 02:15:22;;;;;;;89.38;39.72;;;;;;;1.02;100.00;103436.72;5052827;28;20025;-81
2022/01/25 02:23:18;;;;;;;86.40;40.17;;;;;;;1.06;100.00;103442.94;5052452;28;20503;-81
2022/01/25 02:25:45;;;;;;;87.05;39.85;;;;;;;1.05;100.00;103434.34;5052156;28;20036;-81
2022/01/25 02:28:11;;;;;;;86.60;40.80;;;;;;;1.06;100.00;103433.53;5052935;28;20082;-81
2022/01/25 02:30:36;;;;;;;88.80;41.10;;;;;;;0.99;100.00;103423.72;5051836;28;20048;-81
2022/01/25 02:33:01;;;;;;;82.80;38.72;;;;;;;1.04;100.00;103434.22;5051749;28;20537;-81
2022/01/25 02:35:27;;;;;;;84.30;39.63;;;;;;;1.03;100.00;103420.50;5052381;28;20021;-81
2022/01/25 02:37:52;;;;;;;87.68;40.65;;;;;;;1.05;100.00;103424.06;5052308;28;20520;-81
2022/01/25 02:40:17;;;;;;;79.65;38.95;;;;;;;1.04;100.00;103429.09;5051834;28;20102;-81
2022/01/25 02:42:43;;;;;;;86.60;40.03;;;;;;;1.04;100.00;103414.56;5051463;28;20464;-81
2022/01/25 02:45:11;;;;;;;87.47;39.70;;;;;;;1.06;100.00;103414.66;5052095;28;20029;-81
2022/01/25 02:50:20;;;;;;;87.68;42.50;;;;;;;1.05;100.00;103420.63;5052593;28;20043;-81
2022/01/25 02:52:46;;;;;;;87.47;40.53;;;;;;;1.02;100.00;103407.59;5051041;28;20025;-81
2022/01/25 02:55:11;;;;;;;90.25;40.58;;;;;;;1.00;100.00;103407.50;5052217;28;20036;-81
2022/01/25 02:57:37;;;;;;;92.70;43.08;;;;;;;1.00;100.00;103406.59;5051871;28;20079;-81
2022/01/25 03:00:06;;;;;;;94.70;40.90;;;;;;;1.00;100.00;103402.34;5050978;28;20036;-81
2022/01/25 03:02:31;;;;;;;88.57;40.53;;;;;;;1.04;100.00;103413.69;5051981;28;20033;-81
2022/01/25 03:04:57;;;;;;;96.82;42.55;;;;;;;1.04;100.00;103413.69;5051455;28;20578;-81
2022/01/25 03:07:22;;;;;;;90.25;40.20;;;;;;;1.03;100.00;103406.78;5051243;28;20075;-81
2022/01/25 03:09:47;;;;;;;97.93;41.95;;;;;;;1.04;100.00;103411.09;5051693;28;20115;-81
2022/01/25 03:12:17;;;;;;;95.00;43.53;;;;;;;1.05;100.00;103416.34;5051873;28;20068;-81
2022/01/25 03:15:00;;;;;;;96.60;41.22;;;;;;;1.01;100.00;103401.53;5051118;28;20028;-81
2022/01/25 03:17:29;;;;;;;94.57;42.03;;;;;;;1.03;100.00;103402.53;5043724;28;20024;-81
2022/01/25 03:20:04;;;;;;;97.28;42.75;;;;;;;1.07;100.00;103411.28;5051730;28;20082;-81
2022/01/25 03:23:18;;;;;;;98.07;42.20;;;;;;;1.06;100.00;103391.53;5051114;28;20028;-81
2022/01/25 03:25:15;;;;;;;99.13;42.67;;;;;;;1.08;100.00;103389.94;5049510;28;20480;-81
2022/01/25 03:27:40;;;;;;;96.63;41.70;;;;;;;1.08;100.00;103390.84;5051246;28;20025;-81
2022/01/25 03:30:06;;;;;;;95.93;42.17;;;;;;;1.07;100.00;103394.19;5050534;28;20431;-81
2022/01/25 03:32:31;;;;;;;101.80;44.03;;;;;;;1.11;100.00;103392.66;5051511;28;20025;-81
2022/01/25 03:34:57;;;;;;;100.95;43.63;;;;;;;1.15;100.00;103399.78;5050690;28;20033;-81
2022/01/25 03:37:22;;;;;;;98.82;43.75;;;;;;;1.14;100.00;103383.47;5050953;28;20024;-81
2022/01/25 03:39:47;;;;;;;98.10;41.50;;;;;;;1.14;100.00;103380.00;5051421;28;20087;-81
2022/01/25 03:42:15;;;;;;;96.97;42.13;;;;;;;1.21;100.00;103389.84;5050714;28;20028;-81
2022/01/25 03:44:42;;;;;;;92.63;40.88;;;;;;;1.16;100.00;103379.28;5051353;28;20098;-81
2022/01/25 03:47:11;;;;;;;99.07;43.38;;;;;;;1.21;100.00;103382.13;5051477;28;20028;-81
2022/01/25 03:49:52;;;;;;;96.72;42.25;;;;;;;1.19;100.00;103378.59;5050739;28;20028;-81
2022/01/25 03:52:24;;;;;;;98.28;41.95;;;;;;;1.19;100.00;103386.28;5051368;28;20024;-81
2022/01/25 03:54:50;;;;;;;97.80;41.20;;;;;;;1.19;100.00;103386.28;5051576;28;20380;-81
2022/01/25 03:57:17;;;;;;;108.97;44.53;;;;;;;1.23;100.00;103392.47;5050304;28;20021;-81
2022/01/25 03:59:42;;;;;;;96.22;42.05;;;;;;;1.22;100.00;103381.31;5051171;28;20032;-81
2022/01/25 04:02:08;;;;;;;97.25;42.35;;;;;;;1.24;100.00;103392.56;5050940;28;20029;-82
2022/01/25 04:04:34;;;;;;;100.60;43.05;;;;;;;1.26;100.00;103395.22;5050471;28;20032;-81
2022/01/25 04:07:07;;;;;;;99.85;43.45;;;;;;;1.27;100.00;103391.84;5050815;28;20074;-81
2022/01/25 04:09:33;;;;;;;95.75;43.17;;;;;;;1.25;100.00;103393.47;5050884;28;20021;-81
2022/01/25 04:11:58;;;;;;;103.10;43.22;;;;;;;1.30;100.00;103402.28;5050626;28;20457;-81
2022/01/25 04:14:24;;;;;;;107.25;47.00;;;;;;;1.31;100.00;103401.53;5051322;28;20025;-81
2022/01/25 04:19:31;;;;;;;102.18;43.72;;;;;;;1.31;100.00;103393.81;5049942;28;20037;-81
2022/01/25 04:25:13;;;;;;;98.32;42.05;;;;;;;1.35;100.00;103401.75;5050518;28;20045;-81
2022/01/25 04:27:39;;;;;;;93.95;41.00;;;;;;;1.35;100.00;103391.47;5050498;28;20057;-81
2022/01/25 04:30:06;;;;;;;98.25;43.35;;;;;;;1.34;100.00;103388.81;5050564;28;20076;-81
2022/01/25 04:32:42;;;;;;;95.38;41.47;;;;;;;1.33;100.00;103387.03;5050381;28;20032;-81
2022/01/25 04:54:33;;;;;;;95.68;42.92;;;;;;;1.41;100.00;103388.38;5053628;28;20499;-81
2022/01/25 04:56:59;;;;;;;101.13;42.17;;;;;;;1.41;100.00;103385.78;5053886;28;20041;-81
2022/01/25 05:02:54;;;;;;;103.15;44.15;;;;;;;1.39;100.00;103372.84;5054556;28;20103;-82
2022/01/25 05:05:08;;;;;;;96.05;41.65;;;;;;;1.42;100.00;103377.28;5053816;28;20033;-81
2022/01/25 05:07:46;;;;;;;102.93;44.80;;;;;;;1.43;100.00;103376.47;5052993;28;20021;-81
2022/01/25 05:10:11;;;;;;;103.75;43.78;;;;;;;1.40;100.00;103372.03;5054080;28;20060;-81
2022/01/25 05:15:19;;;;;;;110.25;47.42;;;;;;;1.44;100.00;103373.13;5043615;28;20037;-81
2022/01/25 05:17:57;;;;;;;101.07;45.80;;;;;;;1.47;100.00;103373.28;5034379;28;20469;-81
2022/01/25 05:23:06;;;;;;;105.05;45.28;;;;;;;1.51;100.00;103372.63;5039778;28;20456;-81
2022/01/25 05:25:31;;;;;;;110.32;47.92;;;;;;;1.52;100.00;103373.53;5045212;28;20018;-81
2022/01/25 05:27:56;;;;;;;105.03;44.95;;;;;;;1.52;100.00;103373.53;5034567;28;20038;-81
2022/01/25 05:30:22;;;;;;;109.82;46.47;;;;;;;1.54;100.00;103371.94;5035246;28;20124;-81
2022/01/25 05:32:47;;;;;;;112.57;48.22;;;;;;;1.54;100.00;103375.38;5033953;28;20399;-81
2022/01/25 05:35:12;;;;;;;102.43;44.30;;;;;;;1.53;100.00;103376.16;5033430;28;20539;-81
2022/01/25 05:37:41;;;;;;;109.47;47.53;;;;;;;1.54;100.00;103367.66;5048221;28;20033;-81
2022/01/25 05:40:13;;;;;;;104.70;45.55;;;;;;;1.53;100.00;103370.13;5053392;28;20040;-81
2022/01/25 05:45:18;;;;;;;108.55;46.45;;;;;;;1.55;100.00;103369.44;5048920;28;20033;-81
2022/01/25 05:47:44;;;;;;;110.10;47.30;;;;;;;1.56;100.00;103358.31;5051812;28;20439;-81
2022/01/25 05:50:12;;;;;;;103.53;46.75;;;;;;;1.55;100.00;103359.13;5032235;28;20025;-81
2022/01/25 05:52:38;;;;;;;99.82;44.65;;;;;;;1.57;100.00;103372.97;5045178;28;20103;-81
2022/01/25 05:55:04;;;;;;;102.40;46.08;;;;;;;1.58;100.00;103364.44;5053258;28;20016;-81
2022/01/25 05:57:29;;;;;;;101.05;44.40;;;;;;;1.60;100.00;103373.16;5050540;28;20032;-81
2022/01/25 05:59:55;;;;;;;104.40;46.17;;;;;;;1.59;100.00;103366.22;5053142;28;20491;-81
2022/01/25 06:02:22;;;;;;;101.20;46.05;;;;;;;1.60;100.00;103362.84;5052812;28;20021;-81
2022/01/25 06:04:48;;;;;;;96.45;42.83;;;;;;;1.60;100.00;103362.84;5052110;28;20036;-81
2022/01/25 06:07:13;;;;;;;99.55;44.95;;;;;;;1.61;100.00;103359.47;5053145;28;20559;-81
2022/01/25 06:09:40;;;;;;;98.72;45.28;;;;;;;1.59;100.00;103362.75;5051945;28;20433;-81
2022/01/25 06:12:07;;;;;;;94.28;43.30;;;;;;;1.60;100.00;103365.44;5052531;28;20032;-81
2022/01/25 06:14:32;;;;;;;90.30;41.50;;;;;;;1.61;100.00;103359.47;5052891;28;20036;-81
2022/01/25 06:16:57;;;;;;;89.07;41.50;;;;;;;1.59;100.00;103362.75;5052127;28;20821;-81
2022/01/25 06:19:22;;;;;;;89.95;40.38;;;;;;;1.60;100.00;103359.38;5053130;28;20039;-81
2022/01/25 06:21:48;;;;;;;90.10;41.35;;;;;;;1.62;100.00;103363.81;5052924;28;20041;-81
2022/01/25 06:24:13;;;;;;;88.00;40.30;;;;;;;1.62;100.00;103363.81;5051574;28;20543;-81
2022/01/25 06:26:38;;;;;;;87.57;41.95;;;;;;;1.64;100.00;103366.47;5051864;28;20033;-81
2022/01/25 06:29:04;;;;;;;91.85;41.85;;;;;;;1.63;100.00;103363.03;5052045;28;20053;-81
2022/01/25 06:31:32;;;;;;;90.32;42.10;;;;;;;1.60;100.00;103360.28;5052335;28;20036;-81
2022/01/25 06:33:58;;;;;;;89.50;42.50;;;;;;;1.61;100.00;103362.03;5052337;28;20048;-81
2022/01/25 06:36:24;;;;;;;85.22;40.60;;;;;;;1.62;100.00;103363.81;5052928;28;20066;-81
2022/01/25 06:38:49;;;;;;;88.18;40.90;;;;;;;1.65;100.00;103365.66;5052280;28;20025;-81
2022/01/25 06:41:17;;;;;;;87.82;41.15;;;;;;;1.56;100.00;103349.72;5050957;28;20071;-81
2022/01/25 06:43:42;;;;;;;88.28;39.53;;;;;;;1.63;100.00;103368.16;5040446;28;20029;-81
2022/01/25 06:46:07;;;;;;;85.80;41.65;;;;;;;1.64;100.00;103369.03;5051740;28;20025;-80
2022/01/25 06:48:33;;;;;;;86.53;39.83;;;;;;;1.66;100.00;103362.28;5052748;28;20139;-81
2022/01/25 06:50:58;;;;;;;85.97;40.88;;;;;;;1.65;100.00;103363.09;5052364;28;20037;-81
2022/01/25 06:53:24;;;;;;;88.65;41.60;;;;;;;1.63;100.00;103368.16;5051614;28;20381;-81
2022/01/25 06:55:49;;;;;;;85.53;40.95;;;;;;;1.64;100.00;103364.78;5052227;28;20388;-80
2022/01/25 06:58:15;;;;;;;84.65;41.22;;;;;;;1.63;100.00;103357.88;5051899;28;20032;-81
2022/01/25 07:00:40;;;;;;;86.18;40.70;;;;;;;1.67;100.00;103370.88;5050788;28;20110;-81
2022/01/25 07:03:06;;;;;;;91.70;41.53;;;;;;;1.65;100.00;103370.81;5051954;28;20032;-81
2022/01/25 07:05:32;;;;;;;90.03;41.80;;;;;;;1.67;100.00;103387.22;5051796;28;20017;-81
2022/01/25 07:07:57;;;;;;;90.40;42.55;;;;;;;1.69;100.00;103384.72;5051139;28;20090;-80
2022/01/25 07:10:23;;;;;;;90.20;41.22;;;;;;;1.70;100.00;103383.91;5052064;28;20033;-81
2022/01/25 07:12:48;;;;;;;84.97;40.35;;;;;;;1.65;100.00;103383.66;5050757;28;20024;-80
2022/01/25 07:15:14;;;;;;;85.85;40.03;;;;;;;1.71;100.00;103395.97;5051335;28;20062;-81
2022/01/25 07:17:40;;;;;;;90.47;41.53;;;;;;;1.67;100.00;103386.31;5051759;28;20121;-81
2022/01/25 07:20:07;;;;;;;86.10;40.38;;;;;;;1.70;100.00;103383.91;5050694;28;20106;-81
2022/01/25 07:22:34;;;;;;;91.78;42.33;;;;;;;1.68;100.00;103385.53;5051582;28;20025;-81
2022/01/25 07:25:00;;;;;;;87.85;40.83;;;;;;;1.69;100.00;103377.88;5051144;28;20123;-81
2022/01/25 07:27:26;;;;;;;90.53;41.70;;;;;;;1.72;100.00;103385.75;5050512;28;20033;-80
2022/01/25 07:29:51;;;;;;;85.30;41.22;;;;;;;1.70;100.00;103379.66;5051601;28;20044;-80
2022/01/25 07:32:16;;;;;;;93.30;42.28;;;;;;;1.70;100.00;103387.38;5051902;28;20029;-80
2022/01/25 07:34:42;;;;;;;91.00;42.35;;;;;;;1.74;100.00;103393.56;5050582;28;20032;-81
2022/01/25 07:37:07;;;;;;;84.68;41.42;;;;;;;1.71;100.00;103383.13;5051059;28;20484;-80
2022/01/25 07:39:32;;;;;;;93.68;42.40;;;;;;;1.75;100.00;103387.63;5051215;28;20025;-81
2022/01/25 07:41:59;;;;;;;91.35;42.08;;;;;;;1.77;100.00;103388.59;5050240;28;20041;-81
2022/01/25 07:44:31;;;;;;;88.60;42.65;;;;;;;1.76;100.00;103379.97;5050891;28;20032;-81
2022/01/25 07:46:57;;;;;;;87.78;42.17;;;;;;;1.76;100.00;103385.09;5051476;28;20056;-81
2022/01/25 07:49:26;;;;;;;95.00;41.60;;;;;;;1.78;100.00;103393.81;5050898;28;20361;-81
2022/01/25 07:51:53;;;;;;;90.55;41.25;;;;;;;1.79;100.00;103392.97;5051383;28;20385;-81
2022/01/25 07:54:18;;;;;;;87.28;40.92;;;;;;;1.80;100.00;103391.31;5051219;28;20445;-80
2022/01/25 07:56:43;;;;;;;94.90;42.85;;;;;;;1.82;100.00;103400.00;5050384;28;20123;-81
2022/01/25 07:59:09;;;;;;;91.15;42.17;;;;;;;1.83;99.71;103391.47;5050189;28;20032;-81
2022/01/25 08:01:34;;;;;;;90.03;42.17;;;;;;;1.82;100.00;103397.41;5050872;28;20051;-81
2022/01/25 08:04:00;;;;;;;89.00;42.42;;;;;;;1.86;99.88;103399.34;5050800;28;20465;-81
2022/01/25 08:06:25;;;;;;;93.93;43.10;;;;;;;1.90;100.00;103397.81;5048815;28;20358;-81
2022/01/25 08:08:52;;;;;;;91.40;42.15;;;;;;;1.88;99.16;103396.06;5050937;28;20488;-81
2022/01/25 08:11:18;;;;;;;91.05;42.80;;;;;;;1.84;99.53;103378.69;5051057;28;20027;-81
2022/01/25 08:13:48;;;;;;;84.65;41.70;;;;;;;1.90;98.89;103380.72;5055346;28;20029;-81
2022/01/25 08:16:13;;;;;;;91.43;43.13;;;;;;;1.93;99.28;103383.47;5054390;28;20029;-80
2022/01/25 08:18:39;;;;;;;94.22;43.67;;;;;;;1.92;99.31;103368.81;5055341;28;20477;-82
2022/01/25 08:21:04;;;;;;;96.35;44.78;;;;;;;1.96;98.96;103393.00;5054033;28;20040;-81
2022/01/25 08:23:29;;;;;;;96.63;45.47;;;;;;;2.00;99.89;103388.13;5054745;28;20482;-82
2022/01/25 08:25:54;;;;;;;94.63;44.67;;;;;;;2.00;99.88;103390.69;5055094;28;20036;-83
2022/01/25 08:28:20;;;;;;;85.88;41.85;;;;;;;2.03;98.52;103400.25;5055114;28;20037;-82
2022/01/25 08:30:46;;;;;;;90.72;42.17;;;;;;;2.01;97.84;103395.00;5053866;28;20025;-82
2022/01/25 08:33:11;;;;;;;90.60;42.90;;;;;;;2.06;98.54;103398.72;5055157;28;20477;-82
2022/01/25 08:35:36;;;;;;;88.65;43.53;;;;;;;2.07;98.47;103397.91;5054722;28;20029;-82
2022/01/25 08:38:02;;;;;;;90.60;41.80;;;;;;;2.10;98.39;103398.06;5054175;28;20036;-82
2022/01/25 08:40:29;;;;;;;86.75;41.47;;;;;;;2.08;98.08;103394.53;5054332;28;20509;-82
2022/01/25 08:42:54;;;;;;;94.38;44.92;;;;;;;2.15;98.00;103400.00;5054609;28;20040;-82
2022/01/25 08:45:20;;;;;;;94.85;45.38;;;;;;;2.19;97.67;103402.84;5054084;28;20025;-82
2022/01/25 08:47:45;;;;;;;87.15;42.15;;;;;;;2.20;98.33;103395.97;5054707;28;20048;-82
2022/01/25 08:50:12;;;;;;;95.20;43.40;;;;;;;2.21;98.63;103397.75;5054253;28;20037;-82
2022/01/25 08:52:38;;;;;;;91.78;44.22;;;;;;;2.26;98.17;103404.91;5053262;28;20033;-82
2022/01/25 08:55:05;;;;;;;94.43;44.33;;;;;;;2.29;98.38;103399.03;5054429;28;20044;-81
2022/01/25 08:57:30;;;;;;;94.07;45.05;;;;;;;2.30;98.03;103401.69;5054398;28;20171;-82
2022/01/25 08:59:55;;;;;;;94.40;44.33;;;;;;;2.33;97.83;103411.25;5052652;28;20120;-82
2022/01/25 09:02:20;;;;;;;98.88;45.67;;;;;;;2.31;97.67;103405.13;5054042;28;20389;-82
2022/01/25 09:04:46;;;;;;;98.90;46.08;;;;;;;2.34;98.38;103407.88;5054452;28;20032;-82
2022/01/25 09:07:11;;;;;;;100.45;47.50;;;;;;;2.38;97.87;103408.91;5053249;28;20110;-81
2022/01/25 09:09:36;;;;;;;92.50;45.53;;;;;;;2.33;97.87;103400.97;5054188;28;20021;-84
2022/01/25 09:12:02;;;;;;;107.03;48.25;;;;;;;2.42;96.38;103403.09;5054561;28;20065;-81
2022/01/25 09:14:28;;;;;;;108.68;50.60;;;;;;;2.43;96.82;103410.91;5053714;28;20029;-81
2022/01/25 09:16:53;;;;;;;107.78;48.95;;;;;;;2.44;97.28;103417.81;5053080;28;20025;-81
2022/01/25 09:19:18;;;;;;;111.10;51.20;;;;;;;2.48;96.55;103416.28;5054340;28;20035;-81
2022/01/25 09:21:44;;;;;;;105.85;48.90;;;;;;;2.50;97.13;103409.53;5053274;28;20408;-82
2022/01/25 09:24:10;;;;;;;108.60;50.28;;;;;;;2.50;96.82;103410.41;5053487;28;20128;-81
2022/01/25 09:26:35;;;;;;;115.22;51.30;;;;;;;2.53;96.01;103408.00;5052574;28;20021;-80
2022/01/25 10:33:14;;;;;;;129.63;55.78;;;;;;;3.03;92.31;103434.50;5088344;27;20891;-82
2022/01/25 10:35:40;;;;;;;116.07;52.95;;;;;;;3.06;91.39;103426.91;5087730;28;20104;-82
2022/01/25 10:38:17;;;;;;;116.97;53.42;;;;;;;3.11;91.31;103434.91;5083376;28;20442;-82
2022/01/25 10:40:42;;;;;;;120.70;55.22;;;;;;;3.19;90.70;103436.13;5067768;28;20055;-82
2022/01/25 10:43:13;;;;;;;115.22;53.55;;;;;;;3.23;90.15;103436.34;5080510;28;20471;-82
2022/01/25 10:45:38;;;;;;;111.25;51.63;;;;;;;3.27;89.27;103440.88;5088389;28;20032;-82
2022/01/25 10:48:03;;;;;;;118.82;53.85;;;;;;;3.32;88.32;103430.75;5087957;28;20024;-82
2022/01/25 10:50:34;;;;;;;113.53;52.83;;;;;;;3.32;88.77;103427.31;5087700;28;20031;-83
2022/01/25 10:53:10;;;;;;;114.88;53.80;;;;;;;3.38;89.38;103431.06;5088262;28;20032;-82
2022/01/25 10:55:47;;;;;;;109.25;51.53;;;;;;;3.43;88.36;103431.25;5087518;28;20024;-82
2022/01/25 10:58:14;;;;;;;108.32;52.67;;;;;;;3.48;88.36;103430.66;5088369;28;20029;-82
2022/01/25 11:00:45;;;;;;;112.03;53.58;;;;;;;3.51;87.59;103419.63;5087019;28;20024;-82
2022/01/25 11:03:26;;;;;;;109.38;53.10;;;;;;;3.55;87.82;103420.66;5088172;28;20378;-83
2022/01/25 11:05:51;;;;;;;110.50;54.20;;;;;;;3.60;88.34;103432.06;5088786;28;20066;-83
2022/01/25 11:08:19;;;;;;;112.82;52.35;;;;;;;3.63;88.55;103432.19;5087613;28;20055;-83
2022/01/25 11:10:52;;;;;;;110.57;53.35;;;;;;;3.68;87.55;103430.72;5087276;28;20036;-82
2022/01/25 11:13:35;;;;;;;117.93;53.15;;;;;;;3.70;86.20;103417.09;5086222;28;20025;-83
2022/01/25 11:16:07;;;;;;;105.30;50.80;;;;;;;3.70;86.67;103422.25;5087411;28;20028;-83
2022/01/25 11:18:32;;;;;;;160.07;54.55;;;;;;;3.74;86.82;103426.72;5087576;28;20100;-83
2022/01/25 11:21:05;;;;;;;105.82;51.50;;;;;;;3.74;87.41;103418.09;5088284;28;20020;-83
2022/01/25 11:23:36;;;;;;;110.40;53.03;;;;;;;3.79;85.73;103429.50;5086680;28;20044;-82
2022/01/25 11:26:04;;;;;;;110.78;52.92;;;;;;;3.77;86.04;103426.00;5088064;28;20020;-83
2022/01/25 11:28:34;;;;;;;108.18;50.72;;;;;;;3.80;85.90;103428.72;5086196;28;20079;-80
2022/01/25 11:31:05;;;;;;;108.20;49.88;;;;;;;3.81;85.04;103433.06;5084479;28;20052;-80
2022/01/25 11:33:33;;;;;;;107.32;52.75;;;;;;;3.78;85.89;103422.59;5087311;28;20025;-81
2022/01/25 11:35:59;;;;;;;114.20;53.88;;;;;;;3.73;85.42;103431.84;5087094;28;20070;-80
2022/01/25 11:39:02;;;;;;;116.35;52.33;;;;;;;3.76;87.22;103434.56;5087486;28;20031;-81
2022/01/25 11:41:29;;;;;;;106.63;52.37;;;;;;;3.72;85.32;103425.75;5064466;28;20049;-80
2022/01/25 11:44:10;;;;;;;110.93;53.15;;;;;;;3.75;86.48;103432.75;5053939;28;20029;-80
2022/01/25 11:46:37;;;;;;;111.88;52.80;;;;;;;3.73;85.47;103429.25;5063833;28;20432;-81
2022/01/25 11:49:10;;;;;;;113.10;52.28;;;;;;;3.74;86.02;103418.97;5076371;28;20034;-80
2022/01/25 11:51:36;;;;;;;114.90;53.50;;;;;;;3.74;85.49;103423.25;5062372;28;20032;-80
2022/01/25 11:54:04;;;;;;;112.45;53.45;;;;;;;3.76;85.41;103426.81;5057403;28;20028;-80
2022/01/25 11:56:30;;;;;;;113.65;54.40;;;;;;;3.80;86.17;103422.66;5053121;28;20071;-80
2022/01/25 11:58:58;;;;;;;105.88;52.47;;;;;;;3.81;86.09;103419.28;5065246;28;20043;-80
2022/01/25 12:01:25;;;;;;;114.70;54.78;;;;;;;3.80;86.19;103415.81;5062293;28;20104;-80
2022/01/25 12:03:56;;;;;;;114.80;54.35;;;;;;;3.81;86.18;103420.16;5053228;28;20112;-80
2022/01/25 12:06:29;;;;;;;117.47;56.15;;;;;;;3.79;85.64;103420.88;5053866;28;20024;-80
2022/01/25 12:09:14;;;;;;;111.70;54.33;;;;;;;3.81;85.20;103419.28;5053863;28;20017;-80
2022/01/25 12:11:58;;;;;;;112.80;54.40;;;;;;;3.84;86.34;103409.97;5053221;28;20446;-80
2022/01/25 12:14:28;;;;;;;114.15;54.35;;;;;;;3.90;85.40;103418.00;5053429;28;20041;-80
2022/01/25 12:16:53;;;;;;;113.30;55.30;;;;;;;3.92;85.36;103408.63;5059587;28;20384;-80
2022/01/25 12:19:53;;;;;;;110.28;53.95;;;;;;;3.90;84.79;103402.50;5072834;28;20028;-80
2022/01/25 12:22:25;;;;;;;111.60;52.60;;;;;;;3.89;84.51;103403.34;5052254;28;20041;-80
2022/01/25 12:27:42;;;;;;;111.22;53.00;;;;;;;3.90;86.03;103407.66;5052842;28;20044;-80
2022/01/25 12:30:15;;;;;;;120.85;55.65;;;;;;;3.88;86.39;103400.66;5054545;28;20037;-80
2022/01/25 12:32:59;;;;;;;116.95;54.25;;;;;;;3.89;85.63;103412.75;5066945;28;20466;-80
2022/01/25 12:36:09;;;;;;;113.82;53.75;;;;;;;3.87;85.40;103398.91;5055093;28;20035;-80
2022/01/25 12:38:43;;;;;;;110.20;51.35;;;;;;;3.82;85.59;103398.69;5050838;28;20028;-79
2022/01/25 12:41:11;;;;;;;108.65;51.42;;;;;;;3.81;86.09;103391.75;5050848;28;20392;-79
2022/01/25 12:43:41;;;;;;;111.95;55.83;;;;;;;3.78;86.18;103388.16;5050659;28;20032;-79
2022/01/25 12:46:12;;;;;;;111.75;54.22;;;;;;;3.80;84.76;103387.44;5050765;28;20021;-80
2022/01/25 12:48:46;;;;;;;108.63;55.00;;;;;;;3.81;85.26;103389.19;5050645;28;20021;-80
2022/01/25 12:51:14;;;;;;;109.80;52.05;;;;;;;3.79;84.16;103384.75;5054053;28;20067;-80
2022/01/25 12:53:42;;;;;;;104.68;53.40;;;;;;;3.83;85.01;103382.41;5049797;28;20115;-80
2022/01/25 12:56:10;;;;;;;110.63;52.35;;;;;;;3.85;84.25;103391.06;5051070;28;20036;-80
2022/01/25 12:58:38;;;;;;;105.38;52.03;;;;;;;3.81;83.92;103384.03;5052176;28;20025;-79
2022/01/25 13:01:08;;;;;;;109.75;53.88;;;;;;;3.82;83.65;103375.44;5062398;28;20387;-80
2022/01/25 13:03:39;;;;;;;105.53;51.95;;;;;;;3.83;84.19;103376.38;5071865;28;20082;-81
2022/01/25 13:06:19;;;;;;;108.00;51.83;;;;;;;3.92;84.93;103375.06;5072485;28;20471;-81
2022/01/25 13:09:11;;;;;;;107.88;52.30;;;;;;;3.95;84.90;103369.16;5071407;28;20040;-81
2022/01/25 13:17:11;;;;;;;104.63;49.92;;;;;;;4.05;83.57;103352.34;5071295;28;20089;-80
2022/01/25 13:19:43;;;;;;;105.80;51.72;;;;;;;4.04;83.82;103353.19;5071781;28;20035;-81
2022/01/25 13:22:18;;;;;;;103.28;48.65;;;;;;;4.07;83.13;103346.47;5052061;28;20111;-81
2022/01/25 13:25:00;;;;;;;105.53;49.90;;;;;;;4.03;82.40;103339.41;5051870;28;20029;-81
2022/01/25 13:27:31;;;;;;;107.10;50.75;;;;;;;4.07;83.37;103345.56;5051463;28;20047;-81
2022/01/25 13:32:52;;;;;;;104.55;51.58;;;;;;;4.05;83.15;103352.34;5051433;28;20064;-80
2022/01/25 13:35:31;;;;;;;110.18;51.58;;;;;;;3.95;83.53;103333.88;5058931;28;20028;-80
2022/01/25 13:38:11;;;;;;;110.07;51.28;;;;;;;3.97;82.48;103342.59;5058116;28;20032;-81
2022/01/25 13:41:18;;;;;;;103.78;51.08;;;;;;;3.91;82.23;103339.75;5059803;28;20033;-80
2022/01/25 13:46:03;;;;;;;106.30;51.63;;;;;;;3.86;83.02;103338.69;5064804;28;20120;-78
2022/01/25 13:48:29;;;;;;;107.78;51.53;;;;;;;3.87;84.02;103327.53;5051481;28;20271;-78
2022/01/25 13:50:59;;;;;;;106.50;50.28;;;;;;;3.89;83.38;103332.75;5062927;28;20094;-78
2022/01/25 13:53:28;;;;;;;106.68;50.90;;;;;;;3.90;83.20;103326.78;5069625;28;20025;-77
2022/01/25 13:55:56;;;;;;;107.63;51.08;;;;;;;3.90;82.23;103326.78;5065803;28;20487;-78
2022/01/25 13:58:27;;;;;;;108.70;52.28;;;;;;;3.90;82.86;103326.78;5051983;28;20025;-78
2022/01/25 14:00:56;;;;;;;107.70;52.08;;;;;;;3.91;82.46;103332.00;5065132;28;20025;-81
2022/01/25 14:03:58;;;;;;;105.70;51.55;;;;;;;3.95;84.09;103336.47;5054987;28;20021;-82
2022/01/25 14:06:34;;;;;;;107.95;51.03;;;;;;;3.94;83.04;103334.72;5070447;28;20047;-80
2022/01/25 14:09:09;;;;;;;113.35;52.05;;;;;;;3.91;83.05;103334.56;5069950;28;20038;-81
2022/01/25 14:21:40;;;;;;;107.40;50.25;;;;;;;3.83;83.90;103335.97;5068368;28;20101;-81
2022/01/25 14:22:52;;;;;;;106.95;50.50;;;;;;;3.75;82.96;103343.34;5060944;28;20146;-79
2022/01/25 14:25:30;;;;;;;104.20;50.25;;;;;;;3.71;84.76;103333.69;5053674;28;20380;-81
2022/01/25 14:27:58;;;;;;;106.22;51.58;;;;;;;3.67;84.02;103333.50;5051485;28;20025;-81
2022/01/25 14:30:24;;;;;;;107.47;50.50;;;;;;;3.64;85.35;103333.38;5065254;28;20033;-78